Time;durP1;ratioP1;P1;durP2;ratioP2;P2;SDS_P1;SDS_P2;PMS_P1;PMS_P2;Temp;Humidity;BMP_temperature;BMP_pressure;BME280_temperature;BME280_humidity;BME280_pressure;Samples;Min_cycle;Max_cycle;Signal;HPM_P1;HPM_P2
2023/08/09 00:00:38;;;;;;;5.07;3.93;;;;;;;;;;5070208;28;20347;-76
2023/08/09 00:03:04;;;;;;;5.03;3.80;;;;;;;;;;5053516;28;20184;-76
2023/08/09 00:05:30;;;;;;;3.57;3.27;;;;;;;;;;5053048;28;20199;-76
2023/08/09 00:07:56;;;;;;;4.00;3.60;;;;;;;;;;5071683;28;20223;-76
2023/08/09 00:10:22;;;;;;;5.23;3.70;;;;;;;;;;5072843;28;20270;-76
2023/08/09 00:12:49;;;;;;;4.13;3.73;;;;;;;;;;5073182;28;20274;-76
2023/08/09 00:15:15;;;;;;;4.13;3.73;;;;;;;;;;5073227;28;20262;-76
2023/08/09 00:17:41;;;;;;;4.10;3.80;;;;;;;;;;5072838;28;20250;-76
2023/08/09 00:20:08;;;;;;;4.50;4.10;;;;;;;;;;5074035;28;20262;-75
2023/08/09 00:22:34;;;;;;;4.77;3.87;;;;;;;;;;5073004;28;20237;-75
2023/08/09 00:25:00;;;;;;;4.90;4.27;;;;;;;;;;5074082;28;20194;-75
2023/08/09 00:27:28;;;;;;;5.17;4.03;;;;;;;;;;5072970;28;20244;-76
2023/08/09 00:29:54;;;;;;;3.93;3.53;;;;;;;;;;5072792;28;20214;-76
2023/08/09 00:32:20;;;;;;;4.97;3.97;;;;;;;;;;5073161;28;20179;-76
2023/08/09 00:34:46;;;;;;;4.40;4.00;;;;;;;;;;5073179;28;20250;-76
2023/08/09 00:37:13;;;;;;;4.33;3.30;;;;;;;;;;5072693;28;20170;-76
2023/08/09 00:39:39;;;;;;;4.20;3.80;;;;;;;;;;5089623;28;20225;-76
2023/08/09 00:42:05;;;;;;;4.07;3.73;;;;;;;;;;5072810;28;20176;-76
2023/08/09 00:44:31;;;;;;;3.97;3.67;;;;;;;;;;5074014;28;20253;-76
2023/08/09 00:46:57;;;;;;;5.53;4.13;;;;;;;;;;5072710;28;20179;-75
2023/08/09 00:49:23;;;;;;;4.37;3.97;;;;;;;;;;5073005;28;20241;-76
2023/08/09 00:51:50;;;;;;;5.00;4.27;;;;;;;;;;5073829;28;20175;-76
2023/08/09 00:54:17;;;;;;;5.03;4.10;;;;;;;;;;5076170;28;20274;-76
2023/08/09 00:56:43;;;;;;;5.30;4.80;;;;;;;;;;5076398;28;20188;-76
2023/08/09 00:59:09;;;;;;;5.03;4.53;;;;;;;;;;5077110;28;20238;-79
2023/08/09 01:01:35;;;;;;;5.50;5.00;;;;;;;;;;5076556;28;20179;-79
2023/08/09 01:04:01;;;;;;;6.07;5.47;;;;;;;;;;5093357;28;20245;-79
2023/08/09 01:06:48;;;;;;;6.00;5.40;;;;;;;;;;5076459;28;20178;-79
2023/08/09 01:09:14;;;;;;;6.50;5.90;;;;;;;;;;5077519;28;20222;-78
2023/08/09 01:11:53;;;;;;;7.27;6.37;;;;;;;;;;5077243;28;20240;-79
2023/08/09 01:14:22;;;;;;;7.47;6.77;;;;;;;;;;5077311;28;20179;-74
2023/08/09 01:16:50;;;;;;;7.70;7.10;;;;;;;;;;5076190;28;20179;-74
2023/08/09 01:19:34;;;;;;;8.03;7.33;;;;;;;;;;5077190;28;20300;-74
2023/08/09 01:22:04;;;;;;;9.23;8.33;;;;;;;;;;5075852;28;20194;-75
2023/08/09 01:24:31;;;;;;;10.23;8.60;;;;;;;;;;5076283;28;20175;-75
2023/08/09 01:26:58;;;;;;;11.93;9.87;;;;;;;;;;5092730;28;20172;-75
2023/08/09 01:29:24;;;;;;;11.00;9.67;;;;;;;;;;5076834;28;20252;-76
2023/08/09 01:31:50;;;;;;;15.13;11.07;;;;;;;;;;5092468;28;20186;-75
2023/08/09 01:34:17;;;;;;;11.77;10.63;;;;;;;;;;5076761;28;20177;-75
2023/08/09 01:36:46;;;;;;;12.07;10.77;;;;;;;;;;5059136;28;20183;-75
2023/08/09 01:39:15;;;;;;;13.93;11.43;;;;;;;;;;5075696;28;20275;-75
2023/08/09 01:41:42;;;;;;;14.80;12.30;;;;;;;;;;5075590;28;20243;-74
2023/08/09 01:44:11;;;;;;;15.93;13.17;;;;;;;;;;5075544;28;20175;-74
2023/08/09 01:46:37;;;;;;;16.67;13.67;;;;;;;;;;5076743;28;20229;-75
2023/08/09 01:49:10;;;;;;;15.33;13.53;;;;;;;;;;5075474;28;20201;-75
2023/08/09 01:51:36;;;;;;;14.50;13.00;;;;;;;;;;5076753;28;20181;-74
2023/08/09 01:54:02;;;;;;;17.47;13.43;;;;;;;;;;5076610;28;20236;-74
2023/08/09 01:56:28;;;;;;;18.43;14.30;;;;;;;;;;5075317;28;20190;-74
2023/08/09 01:58:55;;;;;;;20.00;15.83;;;;;;;;;;5076308;28;20259;-74
2023/08/09 02:01:21;;;;;;;21.20;14.33;;;;;;;;;;5075296;28;20183;-74
2023/08/09 02:03:47;;;;;;;21.80;15.60;;;;;;;;;;5058585;28;20193;-74
2023/08/09 02:06:13;;;;;;;17.57;15.67;;;;;;;;;;5074472;28;20180;-74
2023/08/09 02:08:39;;;;;;;18.67;15.03;;;;;;;;;;5067339;28;20232;-75
2023/08/09 02:11:05;;;;;;;19.07;15.93;;;;;;;;;;5061214;28;20189;-76
2023/08/09 02:13:31;;;;;;;21.60;16.00;;;;;;;;;;5058188;28;20183;-76
2023/08/09 02:15:57;;;;;;;22.70;17.03;;;;;;;;;;5066490;28;20183;-75
2023/08/09 02:18:23;;;;;;;22.47;17.03;;;;;;;;;;5082315;28;20268;-75
2023/08/09 02:20:49;;;;;;;21.77;16.33;;;;;;;;;;5070774;28;20199;-75
2023/08/09 02:23:15;;;;;;;21.97;16.63;;;;;;;;;;5075055;28;20183;-76
2023/08/09 02:25:41;;;;;;;24.00;16.07;;;;;;;;;;5074544;28;20184;-74
2023/08/09 02:28:08;;;;;;;21.03;15.77;;;;;;;;;;5057966;28;20184;-74
2023/08/09 02:30:34;;;;;;;22.10;16.27;;;;;;;;;;5064102;28;20222;-74
2023/08/09 02:33:00;;;;;;;20.77;16.33;;;;;;;;;;5061630;28;20260;-74
2023/08/09 02:35:26;;;;;;;19.17;15.40;;;;;;;;;;5074066;28;20188;-74
2023/08/09 02:37:52;;;;;;;21.83;16.47;;;;;;;;;;5073043;28;20202;-74
2023/08/09 02:40:18;;;;;;;19.37;15.87;;;;;;;;;;5063466;28;20178;-74
2023/08/09 02:42:44;;;;;;;26.20;17.70;;;;;;;;;;5066218;28;20180;-76
2023/08/09 02:45:10;;;;;;;22.70;17.37;;;;;;;;;;5064957;28;20238;-76
2023/08/09 02:47:36;;;;;;;23.70;16.83;;;;;;;;;;5057826;28;20251;-76
2023/08/09 02:50:02;;;;;;;25.23;17.27;;;;;;;;;;5072214;28;20207;-76
2023/08/09 02:52:29;;;;;;;27.97;18.37;;;;;;;;;;5070741;28;20179;-75
2023/08/09 02:54:55;;;;;;;22.67;17.17;;;;;;;;;;5069431;28;20183;-76
2023/08/09 02:57:21;;;;;;;22.73;17.00;;;;;;;;;;5074891;28;20187;-76
2023/08/09 02:59:47;;;;;;;21.03;16.93;;;;;;;;;;5074309;28;20199;-79
2023/08/09 03:02:13;;;;;;;23.67;17.43;;;;;;;;;;5057636;28;20182;-79
2023/08/09 03:04:39;;;;;;;24.97;16.77;;;;;;;;;;5074272;28;20305;-74
2023/08/09 03:07:05;;;;;;;24.40;16.17;;;;;;;;;;5057692;28;20179;-74
2023/08/09 03:09:31;;;;;;;29.80;16.40;;;;;;;;;;5074085;28;20229;-74
2023/08/09 03:11:58;;;;;;;24.67;15.57;;;;;;;;;;5073854;28;20210;-73
2023/08/09 03:14:24;;;;;;;24.53;17.33;;;;;;;;;;5057303;28;20179;-79
2023/08/09 03:16:50;;;;;;;22.63;16.23;;;;;;;;;;5073750;28;20186;-79
2023/08/09 03:19:16;;;;;;;24.20;16.87;;;;;;;;;;5057590;28;20215;-79
2023/08/09 03:21:42;;;;;;;23.60;17.03;;;;;;;;;;5074178;28;20245;-79
2023/08/09 03:24:09;;;;;;;24.43;16.63;;;;;;;;;;5058794;28;20191;-79
2023/08/09 03:26:35;;;;;;;26.80;17.10;;;;;;;;;;5071384;28;20179;-79
2023/08/09 03:29:01;;;;;;;26.47;17.10;;;;;;;;;;5073880;28;20193;-79
2023/08/09 03:31:27;;;;;;;25.57;17.23;;;;;;;;;;5073477;28;20183;-75
2023/08/09 03:33:54;;;;;;;30.23;17.17;;;;;;;;;;5070495;28;20245;-75
2023/08/09 03:36:20;;;;;;;27.80;17.07;;;;;;;;;;5074701;28;20195;-76
2023/08/09 03:38:46;;;;;;;24.63;17.03;;;;;;;;;;5057263;28;20214;-78
2023/08/09 03:41:12;;;;;;;27.17;17.57;;;;;;;;;;5056784;28;20183;-78
2023/08/09 03:43:38;;;;;;;31.40;18.00;;;;;;;;;;5073220;28;20183;-79
2023/08/09 03:46:04;;;;;;;28.27;17.57;;;;;;;;;;5073163;28;20258;-75
2023/08/09 03:48:30;;;;;;;31.83;18.57;;;;;;;;;;5073189;28;20182;-75
2023/08/09 03:50:56;;;;;;;27.50;17.60;;;;;;;;;;5073007;28;20207;-75
2023/08/09 03:53:22;;;;;;;27.57;18.13;;;;;;;;;;5073552;28;20179;-75
2023/08/09 03:55:48;;;;;;;30.97;18.40;;;;;;;;;;5073278;28;20282;-75
2023/08/09 03:58:14;;;;;;;30.13;17.47;;;;;;;;;;5056414;28;20226;-75
2023/08/09 04:00:42;;;;;;;33.87;19.37;;;;;;;;;;5056856;28;20195;-75
2023/08/09 04:03:08;;;;;;;29.50;19.20;;;;;;;;;;5073233;28;20226;-78
2023/08/09 04:05:35;;;;;;;31.50;19.90;;;;;;;;;;5073156;28;20179;-73
2023/08/09 04:08:03;;;;;;;33.57;20.73;;;;;;;;;;5073916;28;20294;-74
2023/08/09 04:10:30;;;;;;;31.03;21.27;;;;;;;;;;5074167;28;20175;-73
2023/08/09 04:12:56;;;;;;;35.47;21.23;;;;;;;;;;5056238;28;20190;-73
2023/08/09 04:15:22;;;;;;;37.17;22.30;;;;;;;;;;5056396;28;20179;-73
2023/08/09 04:17:48;;;;;;;36.63;22.80;;;;;;;;;;5073065;28;20188;-73
2023/08/09 04:20:16;;;;;;;36.50;22.70;;;;;;;;;;5054984;28;20187;-74
2023/08/09 04:22:42;;;;;;;33.83;22.70;;;;;;;;;;5074247;28;20300;-74
2023/08/09 04:25:10;;;;;;;36.70;23.27;;;;;;;;;;5072934;28;20190;-74
2023/08/09 04:27:36;;;;;;;40.47;23.57;;;;;;;;;;5074739;28;20167;-74
2023/08/09 04:30:04;;;;;;;38.70;23.77;;;;;;;;;;5077355;28;20237;-73
2023/08/09 04:32:30;;;;;;;37.37;22.70;;;;;;;;;;5077182;28;20199;-74
2023/08/09 04:34:56;;;;;;;37.80;20.93;;;;;;;;;;5076752;28;20192;-73
2023/08/09 04:37:23;;;;;;;37.13;22.10;;;;;;;;;;5059875;28;20193;-74
2023/08/09 04:39:49;;;;;;;33.97;22.57;;;;;;;;;;5076720;28;20211;-79
2023/08/09 04:42:15;;;;;;;31.90;21.10;;;;;;;;;;5060928;28;20202;-79
2023/08/09 04:44:41;;;;;;;29.53;19.70;;;;;;;;;;5071382;28;20188;-79
2023/08/09 04:47:07;;;;;;;25.93;18.80;;;;;;;;;;5056806;28;20229;-79
2023/08/09 04:49:33;;;;;;;30.33;18.67;;;;;;;;;;5076652;28;20187;-79
2023/08/09 04:51:59;;;;;;;29.10;19.33;;;;;;;;;;5068077;22;20223;-74
2023/08/09 04:54:25;;;;;;;31.37;19.27;;;;;;;;;;5058335;28;20183;-75
2023/08/09 04:56:51;;;;;;;32.50;20.10;;;;;;;;;;5077215;28;20175;-75
2023/08/09 04:59:17;;;;;;;29.33;18.20;;;;;;;;;;5058962;28;20221;-75
2023/08/09 05:01:43;;;;;;;30.83;20.57;;;;;;;;;;5042051;28;20183;-75
2023/08/09 05:04:09;;;;;;;33.63;21.10;;;;;;;;;;5047116;28;20178;-75
2023/08/09 05:06:35;;;;;;;30.77;19.37;;;;;;;;;;5057647;28;20269;-75
2023/08/09 05:09:01;;;;;;;30.43;19.30;;;;;;;;;;5060853;28;20192;-75
2023/08/09 05:11:27;;;;;;;28.00;16.70;;;;;;;;;;5055497;28;20196;-78
2023/08/09 05:13:53;;;;;;;22.07;16.73;;;;;;;;;;5024146;28;20184;-74
2023/08/09 05:16:24;;;;;;;25.93;17.50;;;;;;;;;;5058755;28;20280;-79
2023/08/09 05:18:50;;;;;;;27.37;18.07;;;;;;;;;;5056384;28;20235;-79
2023/08/09 05:21:16;;;;;;;32.03;19.40;;;;;;;;;;5058477;28;20191;-79
2023/08/09 05:23:42;;;;;;;26.50;18.23;;;;;;;;;;5060042;28;20183;-79
2023/08/09 05:26:08;;;;;;;32.50;19.80;;;;;;;;;;5059452;28;20210;-79
2023/08/09 05:28:34;;;;;;;33.47;19.67;;;;;;;;;;5077045;28;20191;-75
2023/08/09 05:31:00;;;;;;;32.73;19.80;;;;;;;;;;5059138;28;20240;-75
2023/08/09 05:33:26;;;;;;;33.97;21.77;;;;;;;;;;5059246;28;20183;-75
2023/08/09 05:35:52;;;;;;;35.33;22.07;;;;;;;;;;5059098;28;20260;-75
2023/08/09 05:38:18;;;;;;;33.93;22.17;;;;;;;;;;5058607;28;20261;-75
2023/08/09 05:40:44;;;;;;;43.87;24.13;;;;;;;;;;5076277;28;20194;-75
2023/08/09 05:43:12;;;;;;;43.50;24.10;;;;;;;;;;5058730;28;20179;-75
2023/08/09 05:45:38;;;;;;;43.77;25.20;;;;;;;;;;5058722;28;20179;-74
2023/08/09 05:48:04;;;;;;;41.40;24.93;;;;;;;;;;5058942;28;20290;-73
2023/08/09 05:50:30;;;;;;;43.70;25.10;;;;;;;;;;5058080;28;20203;-73
2023/08/09 05:52:56;;;;;;;37.60;24.47;;;;;;;;;;5055518;28;20247;-74
2023/08/09 05:55:23;;;;;;;40.30;24.20;;;;;;;;;;5057121;28;20184;-74
2023/08/09 05:57:49;;;;;;;43.83;26.70;;;;;;;;;;5058615;28;20554;-75
2023/08/09 06:00:15;;;;;;;45.40;26.23;;;;;;;;;;5057744;28;20241;-75
2023/08/09 06:02:43;;;;;;;46.93;25.90;;;;;;;;;;5039475;28;20180;-79
2023/08/09 06:05:15;;;;;;;43.90;25.33;;;;;;;;;;5075539;28;20255;-79
2023/08/09 06:07:42;;;;;;;39.77;25.37;;;;;;;;;;5038630;28;20215;-75
2023/08/09 06:10:08;;;;;;;37.53;24.60;;;;;;;;;;5037330;28;20183;-75
2023/08/09 06:12:34;;;;;;;43.77;26.57;;;;;;;;;;5042873;28;20175;-75
2023/08/09 06:15:03;;;;;;;43.40;26.10;;;;;;;;;;5064677;28;20191;-75
2023/08/09 06:17:29;;;;;;;42.40;27.00;;;;;;;;;;5075066;28;20194;-79
2023/08/09 06:19:55;;;;;;;36.83;23.80;;;;;;;;;;5058423;28;20199;-79
2023/08/09 06:22:21;;;;;;;38.10;23.53;;;;;;;;;;5058417;28;20254;-79
2023/08/09 06:24:47;;;;;;;35.30;22.33;;;;;;;;;;5058556;28;20191;-80
2023/08/09 06:27:13;;;;;;;28.73;18.10;;;;;;;;;;5076191;28;20245;-80
2023/08/09 06:29:39;;;;;;;28.37;18.10;;;;;;;;;;5055725;28;20278;-81
2023/08/09 06:32:06;;;;;;;27.67;18.03;;;;;;;;;;5040688;28;20187;-81
2023/08/09 06:34:32;;;;;;;28.87;18.27;;;;;;;;;;5047494;28;20194;-76
2023/08/09 06:36:58;;;;;;;26.90;17.87;;;;;;;;;;5071201;28;20225;-76
2023/08/09 06:39:24;;;;;;;24.43;16.73;;;;;;;;;;5050982;28;20276;-80
2023/08/09 06:41:50;;;;;;;23.53;16.73;;;;;;;;;;5074666;28;20183;-79
2023/08/09 06:44:16;;;;;;;28.30;18.13;;;;;;;;;;5057532;28;20178;-80
2023/08/09 06:46:44;;;;;;;30.60;18.70;;;;;;;;;;5073260;28;20192;-80
2023/08/09 06:49:10;;;;;;;27.67;18.60;;;;;;;;;;5057091;28;20179;-80
2023/08/09 06:51:36;;;;;;;28.70;18.60;;;;;;;;;;5041096;28;20254;-81
2023/08/09 06:54:03;;;;;;;31.30;19.27;;;;;;;;;;5054988;28;20263;-80
2023/08/09 06:56:29;;;;;;;29.97;19.80;;;;;;;;;;5035800;28;20191;-76
2023/08/09 06:58:55;;;;;;;32.73;20.23;;;;;;;;;;5061681;28;20233;-76
2023/08/09 07:01:21;;;;;;;29.30;19.53;;;;;;;;;;5062108;28;20247;-75
2023/08/09 07:03:50;;;;;;;28.70;19.77;;;;;;;;;;5055183;28;20217;-77
2023/08/09 07:06:16;;;;;;;33.33;20.23;;;;;;;;;;5072479;28;20198;-76
2023/08/09 07:08:42;;;;;;;31.60;20.40;;;;;;;;;;5072041;28;20205;-75
2023/08/09 07:11:08;;;;;;;32.53;20.93;;;;;;;;;;5055996;28;20182;-81
2023/08/09 07:13:35;;;;;;;32.67;20.23;;;;;;;;;;5056132;28;20198;-81
2023/08/09 07:16:01;;;;;;;30.37;19.53;;;;;;;;;;5057107;28;20179;-81
2023/08/09 07:18:27;;;;;;;35.07;20.47;;;;;;;;;;5069482;28;20218;-81
2023/08/09 07:20:53;;;;;;;28.77;19.13;;;;;;;;;;5054945;28;20184;-81
2023/08/09 07:23:19;;;;;;;29.47;20.67;;;;;;;;;;5029493;28;20275;-81
2023/08/09 07:25:45;;;;;;;29.80;20.20;;;;;;;;;;5030130;28;20188;-76
2023/08/09 07:28:12;;;;;;;30.77;20.53;;;;;;;;;;5028829;28;20194;-76
2023/08/09 07:30:39;;;;;;;28.97;19.87;;;;;;;;;;5074956;28;20179;-76
2023/08/09 07:33:05;;;;;;;31.37;20.47;;;;;;;;;;5056646;28;20187;-76
2023/08/09 07:35:31;;;;;;;27.60;19.23;;;;;;;;;;5074679;28;20179;-75
2023/08/09 07:37:57;;;;;;;28.33;19.87;;;;;;;;;;5033601;28;20183;-75
2023/08/09 07:40:23;;;;;;;25.47;18.90;;;;;;;;;;5056107;28;20283;-75
2023/08/09 07:42:49;;;;;;;23.00;18.07;;;;;;;;;;5056771;28;20199;-77
2023/08/09 07:45:15;;;;;;;21.67;16.20;;;;;;;;;;5057845;28;20179;-76
2023/08/09 07:47:41;;;;;;;21.13;15.47;;;;;;;;;;5056437;28;20202;-76
2023/08/09 07:50:08;;;;;;;18.57;14.83;;;;;;;;;;5074993;28;20263;-76
2023/08/09 07:52:35;;;;;;;16.97;13.70;;;;;;;;;;5056417;28;20376;-77
2023/08/09 07:55:00;;;;;;;15.80;13.67;;;;;;;;;;5056942;28;20175;-76
2023/08/09 07:57:27;;;;;;;17.37;13.27;;;;;;;;;;5056660;28;20244;-76
2023/08/09 07:59:53;;;;;;;16.33;12.23;;;;;;;;;;5040508;28;20264;-75
2023/08/09 08:02:19;;;;;;;16.73;12.63;;;;;;;;;;5052258;28;20172;-75
2023/08/09 08:04:45;;;;;;;15.80;12.20;;;;;;;;;;5036410;28;20172;-75
2023/08/09 08:07:11;;;;;;;16.30;12.63;;;;;;;;;;5056350;28;20258;-75
2023/08/09 08:09:41;;;;;;;27.77;12.80;;;;;;;;;;5056260;28;20321;-75
2023/08/09 08:12:07;;;;;;;13.30;11.40;;;;;;;;;;5060793;28;20211;-75
2023/08/09 08:14:33;;;;;;;13.47;11.20;;;;;;;;;;5055772;28;20187;-77
2023/08/09 08:16:59;;;;;;;12.20;10.90;;;;;;;;;;5073582;28;20236;-77
2023/08/09 08:19:25;;;;;;;17.60;11.85;;;;;;;;;;5055621;28;20497;-77
2023/08/09 08:21:51;;;;;;;14.73;12.70;;;;;;;;;;5055639;28;20409;-77
2023/08/09 08:24:17;;;;;;;15.73;12.18;;;;;;;;;;5055237;28;20410;-77
2023/08/09 08:26:43;;;;;;;14.05;12.15;;;;;;;;;;5039943;28;20412;-77
2023/08/09 08:29:10;;;;;;;14.82;11.38;;;;;;;;;;5049656;28;20420;-77
2023/08/09 08:31:36;;;;;;;14.87;12.43;;;;;;;;;;5055067;28;20449;-81
2023/08/09 08:34:03;;;;;;;15.70;12.50;;;;;;;;;;5056353;28;20483;-81
2023/08/09 08:36:29;;;;;;;14.32;12.57;;;;;;;;;;5038512;28;20429;-81
2023/08/09 08:38:55;;;;;;;15.83;13.47;;;;;;;;;;5055804;28;20499;-83
2023/08/09 08:41:21;;;;;;;13.77;12.40;;;;;;;;;;5055124;28;20406;-82
2023/08/09 08:43:47;;;;;;;14.52;13.23;;;;;;;;;;5055744;28;20413;-82
2023/08/09 08:46:17;;;;;;;13.80;12.45;;;;;;;;;;5056263;28;20398;-83
2023/08/09 08:48:47;;;;;;;13.57;12.20;;;;;;;;;;5054765;28;20510;-82
2023/08/09 08:51:14;;;;;;;12.43;11.30;;;;;;;;;;5072516;28;20406;-82
2023/08/09 08:53:40;;;;;;;11.70;10.57;;;;;;;;;;5054786;28;20453;-82
2023/08/09 08:56:07;;;;;;;11.30;10.20;;;;;;;;;;5055556;28;20493;-82
2023/08/09 08:58:33;;;;;;;11.93;9.90;;;;;;;;;;5054981;28;20432;-82
2023/08/09 09:00:59;;;;;;;9.77;8.50;;;;;;;;;;5054538;28;20410;-82
2023/08/09 09:03:25;;;;;;;9.10;8.17;;;;;;;;;;5073938;28;20168;-82
2023/08/09 09:05:51;;;;;;;9.07;7.90;;;;;;;;;;5053970;28;20440;-77
2023/08/09 09:08:17;;;;;;;8.50;7.50;;;;;;;;;;5065854;28;20184;-76
2023/08/09 09:10:48;;;;;;;8.40;7.37;;;;;;;;;;5073012;28;20207;-76
2023/08/09 09:13:25;;;;;;;9.85;8.60;;;;;;;;;;5050999;28;20404;-76
2023/08/09 09:15:52;;;;;;;7.33;6.00;;;;;;;;;;5056954;28;20224;-77
2023/08/09 09:18:19;;;;;;;8.13;6.20;;;;;;;;;;5039508;28;20453;-77
2023/08/09 09:20:45;;;;;;;7.23;5.67;;;;;;;;;;5039618;28;20172;-76
2023/08/09 09:23:24;;;;;;;7.15;6.00;;;;;;;;;;5031547;28;20412;-76
2023/08/09 09:25:59;;;;;;;7.30;5.50;;;;;;;;;;5059084;28;20186;-76
2023/08/09 09:28:26;;;;;;;8.13;5.87;;;;;;;;;;5059314;28;20336;-77
2023/08/09 09:30:58;;;;;;;7.63;6.45;;;;;;;;;;5075394;28;20418;-76
2023/08/09 09:33:37;;;;;;;6.57;5.93;;;;;;;;;;5040506;28;20077;-77
2023/08/09 09:36:04;;;;;;;8.17;6.20;;;;;;;;;;5053120;28;20426;-77
2023/08/09 09:38:30;;;;;;;9.18;6.88;;;;;;;;;;5081595;28;20425;-77
2023/08/09 09:40:57;;;;;;;9.85;6.97;;;;;;;;;;5071918;28;20437;-76
2023/08/09 09:43:24;;;;;;;7.18;6.00;;;;;;;;;;5060177;28;20490;-76
2023/08/09 09:45:54;;;;;;;6.95;5.80;;;;;;;;;;5047393;28;20447;-77
2023/08/09 09:48:20;;;;;;;6.23;4.80;;;;;;;;;;5044003;28;20237;-77
2023/08/09 09:50:48;;;;;;;5.68;4.78;;;;;;;;;;5060801;28;20436;-76
2023/08/09 09:53:15;;;;;;;6.22;3.92;;;;;;;;;;5074619;28;20427;-75
2023/08/09 09:55:41;;;;;;;5.78;3.63;;;;;;;;;;5057729;28;20517;-77
2023/08/09 09:58:07;;;;;;;6.97;3.80;;;;;;;;;;5074320;28;20421;-77
2023/08/09 10:00:34;;;;;;;5.20;4.03;;;;;;;;;;5074083;28;20406;-77
2023/08/09 10:03:01;;;;;;;6.77;4.70;;;;;;;;;;5057415;28;20426;-77
2023/08/09 10:05:36;;;;;;;6.13;4.50;;;;;;;;;;5057364;28;20478;-77
2023/08/09 10:08:09;;;;;;;7.13;4.40;;;;;;;;;;5075126;28;20394;-77
2023/08/09 10:10:36;;;;;;;4.95;4.00;;;;;;;;;;5055773;28;20446;-77
2023/08/09 10:13:03;;;;;;;6.07;4.50;;;;;;;;;;5054299;28;20415;-76
2023/08/09 10:15:32;;;;;;;6.35;4.30;;;;;;;;;;5053907;28;20408;-76
2023/08/09 10:17:59;;;;;;;6.30;4.13;;;;;;;;;;5056051;28;20435;-76
2023/08/09 10:20:25;;;;;;;5.50;4.10;;;;;;;;;;5056550;28;20406;-83
2023/08/09 10:22:56;;;;;;;6.97;4.95;;;;;;;;;;5057169;28;20421;-83
2023/08/09 10:25:41;;;;;;;5.88;4.53;;;;;;;;;;5074044;28;20405;-81
2023/08/09 10:28:08;;;;;;;5.70;4.72;;;;;;;;;;5057440;28;20430;-77
2023/08/09 10:30:42;;;;;;;5.95;4.43;;;;;;;;;;5056465;28;20428;-77
2023/08/09 10:33:09;;;;;;;5.30;4.25;;;;;;;;;;5065712;28;20402;-76
2023/08/09 10:35:52;;;;;;;4.85;3.70;;;;;;;;;;5057058;28;20410;-76
2023/08/09 10:38:20;;;;;;;4.20;3.42;;;;;;;;;;5056590;28;20485;-76
2023/08/09 10:40:53;;;;;;;4.32;3.30;;;;;;;;;;5074019;28;20401;-76
2023/08/09 10:43:23;;;;;;;5.53;3.20;;;;;;;;;;5074546;28;20386;-76
2023/08/09 10:45:49;;;;;;;4.72;3.40;;;;;;;;;;5056855;28;20409;-80
2023/08/09 10:48:17;;;;;;;4.65;3.33;;;;;;;;;;5055735;28;20428;-80
2023/08/09 10:50:43;;;;;;;5.75;3.53;;;;;;;;;;5073210;28;20429;-81
2023/08/09 10:53:10;;;;;;;5.97;3.80;;;;;;;;;;5061006;22;20459;-76
2023/08/09 10:55:36;;;;;;;4.57;3.42;;;;;;;;;;5053443;28;20434;-76
2023/08/09 10:58:02;;;;;;;6.88;3.63;;;;;;;;;;5058161;28;20504;-76
2023/08/09 11:00:36;;;;;;;5.97;3.35;;;;;;;;;;5074273;28;20394;-76
2023/08/09 11:03:03;;;;;;;6.00;3.63;;;;;;;;;;5072932;28;20403;-76
2023/08/09 11:05:30;;;;;;;5.32;3.63;;;;;;;;;;5073042;28;20417;-76
2023/08/09 11:08:00;;;;;;;4.65;3.50;;;;;;;;;;5057870;28;20420;-76
2023/08/09 11:10:34;;;;;;;6.28;3.85;;;;;;;;;;5062717;28;20428;-76
2023/08/09 11:13:07;;;;;;;5.13;3.67;;;;;;;;;;5072392;28;20455;-76
2023/08/09 11:15:33;;;;;;;6.18;3.92;;;;;;;;;;5056669;28;20435;-77
2023/08/09 11:17:59;;;;;;;6.18;4.00;;;;;;;;;;5062065;28;20434;-77
2023/08/09 11:20:26;;;;;;;5.32;3.78;;;;;;;;;;5058353;28;20420;-77
2023/08/09 11:22:53;;;;;;;5.78;4.47;;;;;;;;;;5039472;28;20423;-77
2023/08/09 11:25:20;;;;;;;4.45;4.00;;;;;;;;;;5055901;28;20426;-76
2023/08/09 11:27:46;;;;;;;5.57;4.35;;;;;;;;;;5040909;28;20415;-77
2023/08/09 11:30:12;;;;;;;5.30;4.45;;;;;;;;;;5057158;28;20507;-77
2023/08/09 11:32:39;;;;;;;5.38;4.45;;;;;;;;;;5041222;28;20439;-77
2023/08/09 11:35:05;;;;;;;5.82;4.50;;;;;;;;;;5040151;28;20452;-75
2023/08/09 11:37:31;;;;;;;4.90;4.40;;;;;;;;;;5055377;28;20463;-76
2023/08/09 11:39:57;;;;;;;7.07;5.30;;;;;;;;;;5059107;28;20441;-77
2023/08/09 11:42:23;;;;;;;6.37;5.10;;;;;;;;;;5057810;28;20422;-76
2023/08/09 11:44:49;;;;;;;7.20;5.70;;;;;;;;;;5059758;28;20419;-76
2023/08/09 11:47:15;;;;;;;7.45;6.10;;;;;;;;;;5040745;28;20414;-76
2023/08/09 11:49:43;;;;;;;7.13;5.95;;;;;;;;;;5060491;28;20487;-76
2023/08/09 11:52:13;;;;;;;6.90;5.95;;;;;;;;;;5038559;28;20443;-82
2023/08/09 11:54:41;;;;;;;7.30;5.90;;;;;;;;;;5055620;28;20408;-82
2023/08/09 11:57:07;;;;;;;6.53;5.28;;;;;;;;;;5058853;28;20414;-77
2023/08/09 11:59:33;;;;;;;6.85;5.70;;;;;;;;;;5054406;28;20474;-77
2023/08/09 12:01:59;;;;;;;6.18;5.10;;;;;;;;;;5057665;28;20437;-77
2023/08/09 12:04:26;;;;;;;7.22;4.70;;;;;;;;;;5052848;28;20470;-77
2023/08/09 12:06:56;;;;;;;4.67;3.97;;;;;;;;;;5081824;28;20413;-77
2023/08/09 12:09:39;;;;;;;5.78;3.83;;;;;;;;;;5056192;28;20418;-76
2023/08/09 12:12:10;;;;;;;4.82;4.15;;;;;;;;;;5057623;28;20214;-76
2023/08/09 12:14:45;;;;;;;5.50;4.00;;;;;;;;;;5056947;28;20176;-76
2023/08/09 12:17:19;;;;;;;5.55;4.53;;;;;;;;;;5082559;28;20507;-76
2023/08/09 12:19:45;;;;;;;7.38;4.55;;;;;;;;;;5053987;28;20434;-76
2023/08/09 12:22:11;;;;;;;5.85;4.68;;;;;;;;;;5054468;28;20420;-75
2023/08/09 12:24:37;;;;;;;5.22;4.00;;;;;;;;;;5065138;28;20435;-76
2023/08/09 12:27:04;;;;;;;3.92;3.15;;;;;;;;;;5042003;28;20410;-77
2023/08/09 12:29:31;;;;;;;6.32;2.80;;;;;;;;;;5058179;28;20414;-76
2023/08/09 12:31:59;;;;;;;4.30;2.80;;;;;;;;;;5063088;28;20432;-77
2023/08/09 12:34:25;;;;;;;4.47;3.00;;;;;;;;;;5055445;28;20416;-82
2023/08/09 12:36:51;;;;;;;3.70;2.90;;;;;;;;;;5044880;28;20442;-82
2023/08/09 12:39:17;;;;;;;4.60;2.70;;;;;;;;;;5058216;28;20436;-82
2023/08/09 12:41:43;;;;;;;3.45;2.72;;;;;;;;;;5062824;28;20179;-77
2023/08/09 12:44:09;;;;;;;2.75;2.20;;;;;;;;;;5062868;28;20183;-77
2023/08/09 12:46:36;;;;;;;4.40;2.60;;;;;;;;;;5064789;28;20422;-77
2023/08/09 12:49:03;;;;;;;4.32;3.00;;;;;;;;;;5045094;28;20269;-77
2023/08/09 12:51:29;;;;;;;4.47;2.90;;;;;;;;;;5060741;28;20513;-77
2023/08/09 12:53:56;;;;;;;4.82;2.60;;;;;;;;;;5047200;28;20238;-77
2023/08/09 12:56:22;;;;;;;5.35;2.40;;;;;;;;;;5061081;28;20424;-77
2023/08/09 12:58:48;;;;;;;4.63;2.40;;;;;;;;;;5063211;28;20434;-82
2023/08/09 13:01:14;;;;;;;6.03;2.33;;;;;;;;;;5083371;28;20442;-82
2023/08/09 13:03:41;;;;;;;3.25;2.15;;;;;;;;;;5076977;28;20422;-83
2023/08/09 13:06:09;;;;;;;4.75;2.40;;;;;;;;;;5072089;28;20510;-82
2023/08/09 13:08:35;;;;;;;3.45;2.10;;;;;;;;;;5097196;28;20418;-82
2023/08/09 13:11:02;;;;;;;4.80;2.20;;;;;;;;;;5110208;28;20179;-82
2023/08/09 13:13:28;;;;;;;5.37;2.40;;;;;;;;;;5069293;28;20497;-82
2023/08/09 13:15:54;;;;;;;6.07;2.20;;;;;;;;;;5057661;28;20476;-78
2023/08/09 13:18:20;;;;;;;3.75;2.08;;;;;;;;;;5050362;28;20412;-77
2023/08/09 13:20:46;;;;;;;3.30;2.00;;;;;;;;;;5055818;28;20412;-77
2023/08/09 13:23:12;;;;;;;4.20;1.98;;;;;;;;;;5055242;28;20534;-76
2023/08/09 13:25:38;;;;;;;4.77;2.00;;;;;;;;;;5056251;28;20412;-77
2023/08/09 13:28:04;;;;;;;4.05;1.80;;;;;;;;;;5089045;28;20465;-83
2023/08/09 13:30:31;;;;;;;3.28;1.88;;;;;;;;;;5055242;28;20404;-83
2023/08/09 13:32:58;;;;;;;4.13;1.80;;;;;;;;;;5088845;28;20423;-77
2023/08/09 13:35:24;;;;;;;5.28;1.90;;;;;;;;;;5071588;28;20397;-77
2023/08/09 13:37:50;;;;;;;4.72;1.90;;;;;;;;;;5050717;28;20420;-77
2023/08/09 13:40:16;;;;;;;2.47;1.60;;;;;;;;;;5068658;28;20433;-77
2023/08/09 13:42:43;;;;;;;4.60;1.85;;;;;;;;;;5068412;28;20475;-77
2023/08/09 13:45:09;;;;;;;5.88;2.00;;;;;;;;;;5051187;28;20440;-77
2023/08/09 13:47:36;;;;;;;6.10;1.83;;;;;;;;;;5051718;28;20472;-76
2023/08/09 13:50:02;;;;;;;4.55;1.90;;;;;;;;;;5036012;28;20412;-76
2023/08/09 13:52:28;;;;;;;4.83;1.90;;;;;;;;;;5051403;28;20499;-76
2023/08/09 13:54:54;;;;;;;3.30;1.83;;;;;;;;;;5051171;28;20417;-76
2023/08/09 13:57:21;;;;;;;3.93;1.80;;;;;;;;;;5051279;28;20410;-76
2023/08/09 13:59:48;;;;;;;2.83;1.60;;;;;;;;;;5050912;28;20507;-76
2023/08/09 14:02:14;;;;;;;5.55;1.80;;;;;;;;;;5048373;28;20422;-76
2023/08/09 14:04:40;;;;;;;3.95;1.70;;;;;;;;;;5037772;28;20454;-77
2023/08/09 14:07:08;;;;;;;3.58;1.80;;;;;;;;;;5038446;28;20419;-77
2023/08/09 14:09:34;;;;;;;5.22;1.77;;;;;;;;;;5054117;28;20506;-77
2023/08/09 14:12:00;;;;;;;3.30;1.77;;;;;;;;;;5054438;28;20416;-82
2023/08/09 14:14:27;;;;;;;5.37;1.90;;;;;;;;;;5071132;28;20420;-82
2023/08/09 14:16:53;;;;;;;4.05;1.70;;;;;;;;;;5087761;28;20395;-82
2023/08/09 14:19:22;;;;;;;4.45;1.88;;;;;;;;;;5070651;28;20450;-83
2023/08/09 14:21:48;;;;;;;3.15;1.75;;;;;;;;;;5057540;28;20414;-77
2023/08/09 14:24:14;;;;;;;5.38;1.88;;;;;;;;;;5066625;28;20499;-77
2023/08/09 14:26:41;;;;;;;4.20;1.70;;;;;;;;;;5058291;28;20435;-77